Time;durP1;ratioP1;P1;durP2;ratioP2;P2;SDS_P1;SDS_P2;PMS_P1;PMS_P2;Temp;Humidity;BMP_temperature;BMP_pressure;BME280_temperature;BME280_humidity;BME280_pressure;Samples;Min_cycle;Max_cycle;Signal;HPM_P1;HPM_P2
2021/01/03 00:02:08;;;;;;;29.65;16.25;;;;;;;8.13;52.96;101815.67;1753005;81;21193;-80
2021/01/03 00:04:39;;;;;;;24.85;13.93;;;;;;;8.13;53.05;101810.34;1780706;80;21581;-79
2021/01/03 00:07:07;;;;;;;22.07;12.88;;;;;;;8.18;53.10;101806.48;1780565;80;21562;-77
2021/01/03 00:09:35;;;;;;;20.12;11.68;;;;;;;8.23;53.12;101806.52;1753393;81;22251;-78
2021/01/03 00:12:04;;;;;;;22.50;12.85;;;;;;;8.22;53.28;101810.16;1780283;80;21098;-78
2021/01/03 00:14:32;;;;;;;16.95;12.18;;;;;;;8.17;53.44;101810.09;1753215;81;21197;-77
2021/01/03 00:17:02;;;;;;;22.48;14.40;;;;;;;8.21;53.52;101802.24;1780300;80;21178;-79
2021/01/03 00:19:30;;;;;;;22.62;14.60;;;;;;;8.22;53.57;101803.94;1780590;80;21217;-79
2021/01/03 00:21:58;;;;;;;25.10;16.32;;;;;;;8.18;53.69;101802.00;1752680;81;21817;-80
2021/01/03 00:24:28;;;;;;;38.75;23.70;;;;;;;8.19;53.82;101806.85;1780780;80;21246;-78
2021/01/03 00:26:56;;;;;;;62.85;36.48;;;;;;;8.16;53.91;101808.39;1780380;80;21553;-78
2021/01/03 00:29:23;;;;;;;87.62;45.23;;;;;;;8.13;53.95;101805.00;1752825;81;21209;-77
2021/01/03 00:31:51;;;;;;;78.25;44.40;;;;;;;8.09;54.04;101814.66;1780434;80;21190;-78
2021/01/03 00:34:20;;;;;;;50.50;29.87;;;;;;;8.09;54.26;101810.17;1780533;80;21288;-75
2021/01/03 00:36:49;;;;;;;52.50;28.95;;;;;;;8.13;54.22;101809.00;1753245;81;21136;-77
2021/01/03 00:39:17;;;;;;;44.95;26.48;;;;;;;8.12;54.32;101807.27;1780575;80;21640;-79
2021/01/03 00:41:49;;;;;;;49.05;27.25;;;;;;;8.09;54.38;101804.84;1753064;81;21692;-77
2021/01/03 00:44:19;;;;;;;44.15;26.35;;;;;;;8.08;54.42;101804.48;1776319;80;21167;-79
2021/01/03 00:46:46;;;;;;;44.80;23.55;;;;;;;8.07;54.38;101801.41;1780466;80;21353;-78
2021/01/03 00:49:14;;;;;;;40.25;22.35;;;;;;;8.04;54.34;101804.31;1753071;81;21170;-78
2021/01/03 00:51:41;;;;;;;45.03;22.17;;;;;;;8.04;54.31;101805.66;1780626;80;21150;-76
2021/01/03 00:54:10;;;;;;;35.00;21.05;;;;;;;8.01;54.41;101803.67;1753186;81;21185;-77
2021/01/03 00:56:38;;;;;;;35.95;21.27;;;;;;;7.97;54.57;101803.03;1780661;80;21578;-77
2021/01/03 00:59:06;;;;;;;34.00;20.55;;;;;;;7.96;54.58;101800.00;1780619;80;21565;-79
2021/01/03 01:01:33;;;;;;;35.58;20.62;;;;;;;7.98;54.54;101800.73;1753139;81;21188;-78
2021/01/03 01:04:04;;;;;;;28.75;16.60;;;;;;;7.97;54.58;101804.36;1780814;80;21598;-78
2021/01/03 01:06:32;;;;;;;35.00;22.07;;;;;;;7.94;54.66;101803.23;1780678;79;21199;-78
2021/01/03 01:09:00;;;;;;;32.55;20.90;;;;;;;7.93;54.72;101798.88;1753214;81;21214;-78
2021/01/03 01:11:29;;;;;;;38.10;24.30;;;;;;;7.95;54.89;101794.30;1780854;80;22102;-80
2021/01/03 01:13:57;;;;;;;40.45;25.55;;;;;;;7.95;54.93;101796.08;1753050;81;21687;-79
2021/01/03 01:16:25;;;;;;;32.38;22.52;;;;;;;7.95;54.98;101787.62;1780176;79;21166;-78
2021/01/03 01:18:53;;;;;;;32.83;20.95;;;;;;;7.93;55.03;101788.20;1780479;80;21456;-80
2021/01/03 01:21:21;;;;;;;32.90;18.32;;;;;;;7.86;55.08;101789.61;1749566;81;21205;-78
2021/01/03 01:23:49;;;;;;;35.85;18.50;;;;;;;7.79;55.25;101794.99;1752915;81;21290;-81
2021/01/03 01:26:18;;;;;;;35.35;19.05;;;;;;;7.72;55.27;101792.36;1780400;80;21210;-81
2021/01/03 01:28:46;;;;;;;33.95;17.80;;;;;;;7.69;55.39;101798.78;1780803;80;21135;-80
2021/01/03 01:31:13;;;;;;;32.15;16.93;;;;;;;7.66;55.43;101796.31;1753124;81;21678;-79
2021/01/03 01:33:41;;;;;;;29.07;15.00;;;;;;;7.65;55.51;101797.28;1780863;80;21126;-80
2021/01/03 01:36:10;;;;;;;17.70;11.73;;;;;;;7.62;55.54;101799.67;1780643;80;21375;-79
2021/01/03 01:38:37;;;;;;;18.82;11.73;;;;;;;7.61;55.60;101799.30;1753555;81;21201;-80
2021/01/03 01:41:05;;;;;;;19.98;11.93;;;;;;;7.61;55.69;101801.97;1780367;79;21174;-80
2021/01/03 01:43:33;;;;;;;21.57;13.48;;;;;;;7.60;55.68;101800.27;1780757;80;21217;-79
2021/01/03 01:46:01;;;;;;;17.45;11.95;;;;;;;7.55;55.80;101805.08;1752961;81;21232;-80
2021/01/03 01:48:36;;;;;;;17.90;12.33;;;;;;;7.50;55.97;101801.88;1780553;80;21333;-78
2021/01/03 01:51:16;;;;;;;15.55;9.70;;;;;;;7.38;56.12;101810.70;1779787;79;21654;-78
2021/01/03 01:54:15;;;;;;;22.17;14.00;;;;;;;7.30;56.33;101817.88;1779156;79;21168;-77
2021/01/03 01:56:57;;;;;;;16.77;10.63;;;;;;;7.29;56.46;101817.98;1785260;80;21514;-77
2021/01/03 01:59:45;;;;;;;20.10;12.88;;;;;;;7.35;56.44;101817.56;1785729;80;21074;-78
2021/01/03 02:02:28;;;;;;;17.52;12.15;;;;;;;7.33;56.52;101822.16;1785890;79;21201;-79
2021/01/03 02:05:04;;;;;;;18.52;12.10;;;;;;;7.35;56.57;101825.08;1760078;79;21069;-77
2021/01/03 02:07:37;;;;;;;14.83;10.20;;;;;;;7.39;56.52;101825.73;1780476;80;21541;-75
2021/01/03 02:10:49;;;;;;;;;;;;;;;;;;;;;
2021/01/03 02:13:25;;;;;;;20.82;13.03;;;;;;;7.33;56.80;101830.16;1841039;77;22739;-76
2021/01/03 02:15:56;;;;;;;17.40;11.55;;;;;;;7.26;56.96;101835.02;1811101;79;21153;-78
2021/01/03 02:18:27;;;;;;;20.68;12.15;;;;;;;7.24;57.08;101834.28;1782755;79;22222;-79
2021/01/03 02:21:30;;;;;;;26.30;12.43;;;;;;;7.21;57.15;101833.63;1807249;78;21221;-77
2021/01/03 02:24:10;;;;;;;21.15;13.50;;;;;;;7.16;57.31;101835.75;1825674;78;21196;-80
2021/01/03 02:26:44;;;;;;;19.90;13.15;;;;;;;7.18;57.42;101840.52;1825777;78;21141;-78
2021/01/03 02:29:13;;;;;;;17.85;11.90;;;;;;;7.20;57.43;101835.92;1808892;78;21157;-79
2021/01/03 02:31:46;;;;;;;21.20;12.25;;;;;;;7.19;57.45;101838.23;1825132;78;22033;-78
2021/01/03 02:34:26;;;;;;;24.92;13.58;;;;;;;7.19;57.49;101835.56;1826052;78;21204;-78
2021/01/03 02:36:58;;;;;;;18.98;12.35;;;;;;;7.22;57.46;101838.88;1825772;78;21161;-79
2021/01/03 02:39:36;;;;;;;20.97;14.05;;;;;;;7.24;57.42;101841.44;1826401;78;21156;-79
2021/01/03 02:42:24;;;;;;;22.95;13.60;;;;;;;7.31;57.32;101842.27;1826108;78;21125;-78
2021/01/03 02:44:53;;;;;;;19.23;13.90;;;;;;;7.37;57.21;101844.98;1805837;78;21363;-78
2021/01/03 02:47:25;;;;;;;22.52;14.50;;;;;;;7.42;57.21;101844.19;1825876;78;21180;-78
2021/01/03 02:49:52;;;;;;;24.32;15.85;;;;;;;7.55;57.11;101838.41;1825973;78;21472;-79
2021/01/03 02:52:30;;;;;;;22.65;14.78;;;;;;;7.68;56.82;101833.57;1825881;78;21169;-79
2021/01/03 02:54:58;;;;;;;22.25;14.70;;;;;;;7.79;56.61;101825.66;1825781;78;21161;-79
2021/01/03 02:57:27;;;;;;;24.85;14.78;;;;;;;7.91;56.34;101823.48;1826047;78;21737;-80
2021/01/03 02:59:55;;;;;;;23.35;14.30;;;;;;;8.01;56.09;101832.54;1825782;78;21177;-78
2021/01/03 03:02:23;;;;;;;21.90;13.58;;;;;;;8.08;55.80;101831.16;1826050;78;21610;-78
2021/01/03 03:04:52;;;;;;;20.52;13.60;;;;;;;8.10;55.65;101831.89;1825783;78;21170;-78
2021/01/03 03:07:21;;;;;;;23.77;15.03;;;;;;;8.11;55.57;101836.75;1825846;78;21080;-78
2021/01/03 03:09:49;;;;;;;22.70;13.60;;;;;;;8.10;55.48;101838.56;1825888;78;21789;-77
2021/01/03 03:12:17;;;;;;;20.25;13.60;;;;;;;8.10;55.40;101843.05;1825823;78;21161;-78
2021/01/03 03:14:45;;;;;;;21.90;14.00;;;;;;;8.04;55.37;101840.34;1825950;78;21046;-78
2021/01/03 03:17:12;;;;;;;22.05;13.38;;;;;;;7.98;55.34;101843.42;1826154;78;21165;-78
2021/01/03 03:19:40;;;;;;;19.30;12.50;;;;;;;7.91;55.40;101838.16;1825892;78;21103;-75
2021/01/03 03:22:08;;;;;;;18.70;12.88;;;;;;;7.89;55.35;101838.73;1825751;78;21345;-76
2021/01/03 03:24:36;;;;;;;15.68;11.55;;;;;;;7.83;55.37;101844.50;1825494;78;21105;-76
2021/01/03 03:27:04;;;;;;;16.95;11.33;;;;;;;7.80;55.43;101847.37;1825403;78;21513;-76
2021/01/03 03:29:32;;;;;;;18.30;12.13;;;;;;;7.82;55.38;101848.13;1825530;78;21182;-76
2021/01/03 03:32:00;;;;;;;13.62;9.08;;;;;;;7.76;55.38;101845.88;1825288;78;21185;-77
2021/01/03 03:34:28;;;;;;;13.78;9.95;;;;;;;7.69;55.37;101842.79;1825648;78;21635;-78
2021/01/03 03:36:56;;;;;;;13.55;9.18;;;;;;;7.60;55.38;101848.75;1825214;78;21196;-79
2021/01/03 03:39:25;;;;;;;13.62;9.65;;;;;;;7.51;55.48;101846.23;1825567;78;21134;-78
2021/01/03 03:41:56;;;;;;;14.00;9.55;;;;;;;7.46;55.63;101847.03;1825460;78;21340;-80
2021/01/03 03:44:25;;;;;;;15.03;9.05;;;;;;;7.46;55.69;101843.03;1825701;78;21118;-76
2021/01/03 03:47:03;;;;;;;13.90;9.60;;;;;;;7.47;55.70;101835.40;1825363;78;21298;-79
2021/01/03 03:49:31;;;;;;;12.50;9.13;;;;;;;7.46;55.71;101836.36;1825625;78;21188;-78
2021/01/03 03:52:01;;;;;;;19.87;12.53;;;;;;;7.43;55.77;101827.23;1825254;78;21170;-77
2021/01/03 03:54:29;;;;;;;13.95;8.88;;;;;;;7.46;55.79;101832.36;1825457;78;21196;-78
2021/01/03 03:57:00;;;;;;;15.23;11.53;;;;;;;7.47;55.68;101834.06;1825151;78;21160;-77
2021/01/03 03:59:28;;;;;;;14.25;9.88;;;;;;;7.41;55.70;101838.49;1825480;78;21350;-79
2021/01/03 04:01:56;;;;;;;15.25;9.53;;;;;;;7.39;55.72;101840.39;1825101;78;21197;-77
2021/01/03 04:04:25;;;;;;;17.75;11.05;;;;;;;7.36;55.75;101848.13;1825379;78;21129;-77
2021/01/03 04:06:53;;;;;;;16.87;12.20;;;;;;;7.33;55.80;101847.48;1825290;78;21157;-77
2021/01/03 04:09:21;;;;;;;14.47;10.05;;;;;;;7.36;55.73;101856.61;1825453;78;21156;-78
2021/01/03 04:11:50;;;;;;;16.35;11.48;;;;;;;7.30;55.70;101863.19;1825204;78;21580;-77
2021/01/03 04:14:21;;;;;;;12.70;9.58;;;;;;;7.26;55.79;101862.16;1825288;78;21608;-76
2021/01/03 04:16:56;;;;;;;13.40;8.73;;;;;;;7.21;55.82;101866.94;1825396;78;21153;-77
2021/01/03 04:19:24;;;;;;;20.65;11.95;;;;;;;7.16;55.88;101864.58;1825659;78;21472;-79
2021/01/03 04:21:56;;;;;;;18.55;11.22;;;;;;;7.06;55.99;101865.67;1825316;78;21137;-77
2021/01/03 04:24:24;;;;;;;19.85;11.88;;;;;;;7.01;56.07;101866.45;1825320;78;22647;-77
2021/01/03 04:26:56;;;;;;;19.00;11.83;;;;;;;6.92;56.22;101863.06;1825137;78;21191;-77
2021/01/03 04:29:24;;;;;;;18.40;10.75;;;;;;;6.91;56.34;101865.36;1825525;78;21609;-77
2021/01/03 04:32:00;;;;;;;20.97;12.13;;;;;;;6.94;56.35;101870.47;1825173;78;21137;-77
2021/01/03 04:34:28;;;;;;;18.42;10.25;;;;;;;6.87;56.38;101869.17;1825532;78;21169;-78
2021/01/03 04:36:57;;;;;;;17.37;10.98;;;;;;;6.83;56.42;101864.52;1825219;78;21146;-76
2021/01/03 04:39:25;;;;;;;15.28;9.05;;;;;;;6.73;56.42;101873.21;1825522;78;21177;-79
2021/01/03 04:42:09;;;;;;;14.13;8.53;;;;;;;6.65;56.53;101871.51;1825473;78;21137;-79
2021/01/03 04:44:46;;;;;;;18.75;9.45;;;;;;;6.61;56.57;101881.02;1825459;78;21185;-77
2021/01/03 04:47:37;;;;;;;15.13;8.93;;;;;;;6.54;56.56;101881.05;1825385;78;21200;-80
2021/01/03 04:50:41;;;;;;;13.75;9.33;;;;;;;6.45;56.76;101875.41;1825154;78;21435;-75
2021/01/03 04:53:49;;;;;;;16.42;10.75;;;;;;;6.46;56.88;101867.36;1825180;78;21365;-76
2021/01/03 04:56:44;;;;;;;14.30;9.85;;;;;;;6.53;56.85;101872.65;1824795;78;21188;-79
2021/01/03 04:59:41;;;;;;;9.73;6.37;;;;;;;6.60;56.73;101875.31;1824607;78;21157;-77
2021/01/03 05:02:44;;;;;;;13.83;8.43;;;;;;;6.62;56.62;101881.86;1805513;78;21117;-78
2021/01/03 05:05:28;;;;;;;14.05;8.13;;;;;;;6.53;56.54;101881.97;1804412;78;21353;-80
2021/01/03 05:08:07;;;;;;;11.00;7.28;;;;;;;6.52;56.57;101874.09;1807989;78;21169;-77
2021/01/03 05:10:35;;;;;;;16.35;8.95;;;;;;;6.50;56.57;101878.19;1794274;79;21108;-78
2021/01/03 05:13:37;;;;;;;16.55;10.38;;;;;;;6.51;56.54;101879.05;1784083;80;21497;-76
2021/01/03 05:16:12;;;;;;;21.57;10.65;;;;;;;6.55;56.51;101884.08;1784377;80;21159;-78
2021/01/03 05:18:40;;;;;;;27.45;11.55;;;;;;;6.63;56.45;101882.23;1784321;80;21360;-78
2021/01/03 05:21:08;;;;;;;30.32;12.30;;;;;;;6.72;56.20;101891.45;1784056;80;21196;-76
2021/01/03 05:23:39;;;;;;;21.20;10.58;;;;;;;6.79;55.96;101885.64;1784272;79;21576;-77
2021/01/03 05:26:08;;;;;;;18.67;9.50;;;;;;;6.80;55.78;101887.34;1784087;79;21147;-77
2021/01/03 05:28:37;;;;;;;20.27;9.93;;;;;;;6.70;55.76;101896.03;1783630;79;21176;-77
2021/01/03 05:31:17;;;;;;;18.45;9.10;;;;;;;6.64;55.84;101896.43;1783978;80;21371;-75
2021/01/03 05:34:08;;;;;;;15.13;9.05;;;;;;;6.58;55.80;101895.84;1784208;80;20950;-77
2021/01/03 05:36:47;;;;;;;16.48;10.72;;;;;;;6.55;55.87;101897.39;1783948;79;21168;-76
2021/01/03 05:39:23;;;;;;;14.28;10.18;;;;;;;6.52;55.85;101897.56;1756396;80;21127;-76
2021/01/03 05:42:22;;;;;;;14.75;9.90;;;;;;;6.55;55.86;101896.53;1784168;80;21084;-76
2021/01/03 05:45:10;;;;;;;14.00;10.15;;;;;;;6.60;55.77;101900.61;1803355;79;22083;-77
2021/01/03 05:47:43;;;;;;;;;;;;;;;6.58;55.74;101894.51;1810847;77;21136;-77
2021/01/03 05:50:26;;;;;;;16.57;10.40;;;;;;;6.58;55.70;101904.30;1779339;79;20597;-76
2021/01/03 05:53:11;;;;;;;19.17;13.32;;;;;;;6.51;55.73;101903.85;1810644;77;21576;-77
2021/01/03 05:55:39;;;;;;;18.20;12.13;;;;;;;6.44;55.86;101907.84;1783881;79;21145;-77
2021/01/03 05:58:24;;;;;;;17.50;12.20;;;;;;;6.43;55.91;101904.80;1734526;77;21805;-77
2021/01/03 06:00:52;;;;;;;19.55;12.28;;;;;;;6.44;55.91;101911.83;1806350;79;21126;-76
2021/01/03 06:03:30;;;;;;;18.82;10.70;;;;;;;6.41;56.08;101917.36;1813926;78;21098;-76
2021/01/03 06:06:12;;;;;;;17.17;10.25;;;;;;;6.44;56.06;101921.63;1798937;78;21583;-77
2021/01/03 06:08:40;;;;;;;18.45;9.95;;;;;;;6.49;55.83;101922.19;1760879;81;21457;-77
2021/01/03 06:11:18;;;;;;;16.20;9.90;;;;;;;6.44;55.81;101929.13;1786014;79;21375;-77
2021/01/03 06:13:50;;;;;;;19.35;10.85;;;;;;;6.31;55.84;101937.04;1803958;79;21097;-77
2021/01/03 06:16:24;;;;;;;14.85;8.13;;;;;;;6.23;56.07;101934.47;1815298;79;21568;-77
2021/01/03 06:18:59;;;;;;;15.98;9.33;;;;;;;6.20;56.09;101937.31;1815032;78;21092;-78
2021/01/03 06:21:31;;;;;;;12.68;7.30;;;;;;;6.07;56.19;101934.53;1815657;79;21116;-76
2021/01/03 06:24:24;;;;;;;14.03;9.55;;;;;;;5.97;56.43;101934.23;1815657;79;21484;-78
2021/01/03 06:27:02;;;;;;;12.73;8.15;;;;;;;5.92;56.66;101936.80;1812346;77;21231;-76
2021/01/03 06:29:42;;;;;;;;;;;;;;;5.93;56.69;101935.84;1786384;79;21153;-78
2021/01/03 06:32:18;;;;;;;8.73;5.85;;;;;;;5.93;56.73;101926.05;1770894;80;20289;-77
2021/01/03 06:34:56;;;;;;;7.67;5.92;;;;;;;5.95;56.76;101933.93;1783599;80;21092;-75
2021/01/03 06:38:09;;;;;;;10.15;6.87;;;;;;;5.98;56.81;101930.62;1783286;80;21465;-77
2021/01/03 06:40:58;;;;;;;10.65;7.80;;;;;;;6.03;56.74;101940.50;1734260;82;21237;-78
2021/01/03 06:43:55;;;;;;;13.65;7.90;;;;;;;6.09;56.67;101933.50;1735935;82;21413;-76
2021/01/03 06:47:05;;;;;;;9.78;6.55;;;;;;;6.07;56.60;101926.07;1777829;80;21172;-79
2021/01/03 06:49:42;;;;;;;7.60;6.12;;;;;;;6.15;56.62;101934.08;1781769;79;21200;-76
2021/01/03 06:52:58;;;;;;;10.28;6.42;;;;;;;6.22;56.49;101938.05;1789724;79;21113;-77
2021/01/03 06:56:07;;;;;;;13.72;8.53;;;;;;;6.26;56.42;101933.78;1763376;77;21061;-77
2021/01/03 06:59:30;;;;;;;12.65;8.45;;;;;;;6.31;56.35;101944.14;1800828;79;21404;-77
2021/01/03 07:01:58;;;;;;;14.95;9.35;;;;;;;6.35;56.27;101941.20;1817432;79;21175;-77
2021/01/03 07:04:33;;;;;;;16.32;8.58;;;;;;;6.37;56.15;101946.45;1817689;79;21135;-75
2021/01/03 07:07:02;;;;;;;11.80;7.45;;;;;;;6.35;56.15;101950.98;1816745;79;21799;-79
2021/01/03 07:09:30;;;;;;;11.08;7.30;;;;;;;6.28;56.22;101947.02;1793747;79;21164;-78
2021/01/03 07:11:58;;;;;;;11.65;7.00;;;;;;;6.19;56.30;101947.58;1783680;80;21742;-78
2021/01/03 07:14:39;;;;;;;11.35;6.33;;;;;;;6.06;56.54;101952.30;1785561;77;22293;-78
2021/01/03 07:17:16;;;;;;;8.23;6.28;;;;;;;5.98;56.52;101945.72;1784678;80;21710;-76
2021/01/03 07:19:54;;;;;;;11.22;7.45;;;;;;;5.93;56.66;101949.98;1783625;80;21775;-78
2021/01/03 07:22:32;;;;;;;8.98;6.78;;;;;;;5.95;56.65;101939.25;1783385;79;21200;-77
2021/01/03 07:25:07;;;;;;;10.25;6.28;;;;;;;6.05;56.54;101939.10;1785697;79;21172;-77
2021/01/03 07:27:38;;;;;;;9.40;6.70;;;;;;;6.07;56.33;101939.38;1813375;79;21403;-77
2021/01/03 07:30:13;;;;;;;10.50;7.25;;;;;;;6.05;56.04;101943.94;1784613;80;21092;-77
2021/01/03 07:32:53;;;;;;;10.60;7.25;;;;;;;6.05;56.14;101949.73;1783669;79;21188;-76
2021/01/03 07:35:32;;;;;;;12.03;7.75;;;;;;;6.08;56.08;101946.39;1777066;78;21572;-76
2021/01/03 07:38:24;;;;;;;14.15;9.73;;;;;;;6.12;55.98;101951.06;1783365;80;21131;-78
2021/01/03 07:41:05;;;;;;;8.05;5.60;;;;;;;6.13;56.07;101949.26;1787140;77;21176;-79
2021/01/03 07:43:58;;;;;;;15.60;9.65;;;;;;;6.14;55.83;101950.99;1782858;79;21163;-79
2021/01/03 07:46:46;;;;;;;15.00;9.10;;;;;;;6.08;55.96;101956.19;1782384;80;21427;-76
2021/01/03 07:49:44;;;;;;;16.85;10.85;;;;;;;6.13;55.95;101952.77;1782492;80;21191;-77
2021/01/03 07:52:23;;;;;;;22.05;12.37;;;;;;;6.19;55.89;101954.23;1782488;80;21698;-78
2021/01/03 07:54:56;;;;;;;16.48;10.10;;;;;;;6.26;55.79;101956.88;1782593;79;21218;-78
2021/01/03 07:57:28;;;;;;;19.50;11.22;;;;;;;6.35;55.67;101952.32;1782880;79;21742;-77
2021/01/03 07:59:56;;;;;;;12.07;8.85;;;;;;;6.46;55.68;101958.34;1783525;80;21367;-77
2021/01/03 08:02:29;;;;;;;12.58;7.92;;;;;;;6.58;55.28;101952.22;1837797;77;21173;-78
2021/01/03 08:05:01;;;;;;;12.35;8.95;;;;;;;6.57;55.02;101951.38;1850219;77;21117;-76
2021/01/03 08:07:30;;;;;;;14.45;9.90;;;;;;;6.59;54.95;101953.48;1849884;77;21161;-78
2021/01/03 08:10:11;;;;;;;14.75;10.65;;;;;;;6.67;54.86;101952.98;1825521;77;21651;-77
2021/01/03 08:12:47;;;;;;;13.35;9.40;;;;;;;6.71;54.79;101950.51;1850048;77;21255;-79
2021/01/03 08:15:28;;;;;;;16.65;10.85;;;;;;;6.81;54.57;101956.10;1825313;78;21131;-78
2021/01/03 08:18:15;;;;;;;15.03;9.40;;;;;;;6.77;54.35;101966.13;1837387;77;21136;-79
2021/01/03 08:20:43;;;;;;;27.82;15.85;;;;;;;6.69;54.45;101954.23;1763978;79;21176;-79
2021/01/03 08:23:18;;;;;;;28.47;14.98;;;;;;;6.69;54.59;101948.91;1835560;77;21168;-79
2021/01/03 08:25:46;;;;;;;20.15;10.72;;;;;;;6.79;54.66;101939.38;1824472;78;21161;-79
2021/01/03 08:28:21;;;;;;;19.30;11.15;;;;;;;6.91;54.52;101949.27;1848620;77;21196;-79
2021/01/03 08:30:51;;;;;;;20.02;10.60;;;;;;;6.92;54.31;101948.78;1848770;77;21581;-77
2021/01/03 08:33:29;;;;;;;18.37;11.97;;;;;;;6.92;54.38;101943.45;1848284;77;21410;-77
2021/01/03 08:36:00;;;;;;;14.07;7.70;;;;;;;6.91;54.21;101945.27;1841862;77;21172;-78
2021/01/03 08:38:30;;;;;;;18.52;11.33;;;;;;;6.82;54.38;101948.52;1822252;78;21186;-78
2021/01/03 08:41:03;;;;;;;18.32;11.00;;;;;;;6.77;54.55;101946.62;1841886;77;21645;-79
2021/01/03 08:43:31;;;;;;;20.55;12.70;;;;;;;6.76;54.58;101939.09;1789846;79;21145;-78
2021/01/03 08:46:04;;;;;;;17.42;11.78;;;;;;;6.74;54.72;101945.48;1813453;79;21185;-77
2021/01/03 08:48:33;;;;;;;19.65;11.90;;;;;;;6.73;54.73;101941.11;1791839;77;21187;-77
2021/01/03 08:51:16;;;;;;;19.70;11.73;;;;;;;6.66;54.79;101944.63;1782500;80;21198;-78
2021/01/03 08:53:46;;;;;;;16.73;10.70;;;;;;;6.62;54.99;101943.09;1782045;80;21702;-77
2021/01/03 08:56:26;;;;;;;19.05;11.45;;;;;;;6.67;55.05;101940.14;1803200;79;21173;-78
2021/01/03 08:58:54;;;;;;;14.75;10.15;;;;;;;6.74;54.99;101937.01;1789458;78;21192;-78
2021/01/03 09:01:29;;;;;;;18.35;12.25;;;;;;;6.79;54.94;101930.91;1794408;79;22036;-79
2021/01/03 09:04:03;;;;;;;23.85;15.48;;;;;;;6.83;54.84;101925.77;1788568;79;22234;-78
2021/01/03 09:06:31;;;;;;;22.87;14.93;;;;;;;6.86;54.77;101926.06;1815862;79;21144;-76
2021/01/03 09:09:15;;;;;;;21.60;12.90;;;;;;;6.84;54.77;101922.63;1806625;79;21108;-77
2021/01/03 09:12:06;;;;;;;23.92;15.20;;;;;;;7.01;54.46;101925.06;1815105;78;21192;-77
2021/01/03 09:14:49;;;;;;;24.60;14.63;;;;;;;7.08;54.26;101927.69;1813945;79;21651;-78
2021/01/03 09:17:20;;;;;;;21.62;13.83;;;;;;;7.03;54.16;101916.48;1815687;78;22194;-78
2021/01/03 09:20:02;;;;;;;29.63;16.77;;;;;;;7.00;54.23;101915.37;1815711;78;21442;-78
2021/01/03 09:22:34;;;;;;;23.90;15.65;;;;;;;6.86;54.68;101917.59;1815922;78;21104;-78
2021/01/03 09:25:16;;;;;;;31.00;18.57;;;;;;;6.89;54.83;101905.88;1808110;77;21666;-77
2021/01/03 09:27:44;;;;;;;26.73;16.90;;;;;;;6.91;54.90;101903.98;1815073;79;21069;-78
2021/01/03 09:30:24;;;;;;;25.57;16.15;;;;;;;7.00;54.81;101905.20;1784581;79;22182;-77
2021/01/03 09:33:15;;;;;;;23.20;15.85;;;;;;;7.11;54.69;101912.84;1815525;79;21116;-78
2021/01/03 09:35:55;;;;;;;24.67;15.90;;;;;;;7.15;54.47;101915.33;1815634;79;21128;-78
2021/01/03 09:38:33;;;;;;;24.30;15.50;;;;;;;7.15;54.45;101913.99;1814744;79;21179;-77
2021/01/03 09:41:15;;;;;;;29.57;17.20;;;;;;;7.16;54.36;101919.21;1805443;79;21192;-79
2021/01/03 09:44:17;;;;;;;26.97;17.70;;;;;;;7.16;54.36;101905.89;1815598;79;21786;-78
2021/01/03 09:46:59;;;;;;;22.62;14.18;;;;;;;7.22;54.30;101904.63;1814777;79;21194;-78
2021/01/03 09:49:50;;;;;;;26.00;17.07;;;;;;;7.22;54.30;101900.17;1814311;79;21390;-78
2021/01/03 09:52:29;;;;;;;29.45;17.98;;;;;;;7.24;54.32;101904.06;1814484;79;21186;-79
2021/01/03 09:55:08;;;;;;;29.37;18.62;;;;;;;7.25;54.35;101907.09;1785735;79;21171;-79
2021/01/03 09:58:07;;;;;;;23.85;16.37;;;;;;;7.30;54.27;101899.64;1814773;79;21372;-80
2021/01/03 10:00:50;;;;;;;;;;;;;;;7.34;54.23;101899.34;1807034;79;21183;-77
2021/01/03 10:03:23;;;;;;;25.25;15.00;;;;;;;7.34;54.12;101898.48;1782348;79;20274;-77
2021/01/03 10:05:51;;;;;;;19.98;13.90;;;;;;;7.34;54.08;101893.16;1782114;80;21180;-79
2021/01/03 10:08:29;;;;;;;19.87;13.03;;;;;;;7.30;54.12;101896.98;1782343;80;21259;-77
2021/01/03 10:10:59;;;;;;;19.32;13.03;;;;;;;7.28;54.19;101897.58;1783265;79;21643;-79
2021/01/03 10:13:29;;;;;;;23.18;15.35;;;;;;;7.26;54.23;101900.80;1785284;79;21164;-78
2021/01/03 10:15:57;;;;;;;22.45;14.95;;;;;;;7.25;54.25;101889.29;1815112;78;21955;-81
2021/01/03 10:18:37;;;;;;;23.40;14.68;;;;;;;7.30;54.28;101888.50;1814583;79;21168;-75
2021/01/03 10:21:38;;;;;;;21.42;14.58;;;;;;;7.30;54.18;101892.50;1812853;79;21651;-78
2021/01/03 10:24:18;;;;;;;19.90;13.08;;;;;;;7.11;54.31;101889.35;1814483;79;21167;-77
2021/01/03 10:26:51;;;;;;;20.50;13.15;;;;;;;7.07;54.51;101892.69;1814439;78;21247;-79
2021/01/03 10:29:19;;;;;;;22.65;14.35;;;;;;;7.05;54.64;101889.77;1792471;79;21179;-77
2021/01/03 10:31:48;;;;;;;21.82;14.85;;;;;;;7.07;54.72;101887.36;1782631;79;22226;-77
2021/01/03 10:34:19;;;;;;;20.40;14.58;;;;;;;7.15;54.69;101891.34;1782804;80;21188;-77
2021/01/03 10:36:46;;;;;;;22.60;13.90;;;;;;;7.21;54.51;101888.27;1783437;80;21365;-78
2021/01/03 10:39:16;;;;;;;18.90;13.32;;;;;;;7.21;54.47;101888.27;1798477;77;21871;-78
2021/01/03 10:41:46;;;;;;;20.72;13.35;;;;;;;7.21;54.46;101884.27;1815441;78;21088;-77
2021/01/03 10:44:15;;;;;;;19.15;12.78;;;;;;;7.25;54.50;101881.30;1815070;79;21077;-79
2021/01/03 10:46:49;;;;;;;22.70;14.53;;;;;;;7.28;54.46;101880.25;1813455;79;21630;-77
2021/01/03 10:49:17;;;;;;;25.90;16.40;;;;;;;7.27;54.41;101885.21;1782105;80;22129;-77
2021/01/03 10:51:46;;;;;;;26.75;16.27;;;;;;;7.26;54.40;101877.66;1781024;80;21252;-77
2021/01/03 10:54:18;;;;;;;19.27;11.75;;;;;;;7.30;54.40;101872.52;1781996;79;21636;-78
2021/01/03 10:56:49;;;;;;;20.52;12.88;;;;;;;7.33;54.33;101872.31;1791283;79;21079;-78
2021/01/03 10:59:20;;;;;;;26.65;13.78;;;;;;;7.37;54.40;101870.31;1783048;80;21196;-78
2021/01/03 11:01:48;;;;;;;19.80;12.75;;;;;;;7.51;54.31;101877.37;1788274;79;21374;-79
2021/01/03 11:04:19;;;;;;;21.55;13.30;;;;;;;7.57;54.14;101865.80;1802670;79;21152;-77
2021/01/03 11:06:53;;;;;;;21.07;14.33;;;;;;;7.61;53.93;101867.30;1785839;79;21206;-78
2021/01/03 11:09:30;;;;;;;17.52;11.60;;;;;;;7.61;53.87;101868.64;1756982;80;21468;-79
2021/01/03 11:12:02;;;;;;;16.70;11.70;;;;;;;7.55;53.82;101865.06;1791069;79;21188;-78
2021/01/03 11:14:30;;;;;;;14.45;10.15;;;;;;;7.55;53.90;101866.40;1791217;80;22248;-77
2021/01/03 11:16:58;;;;;;;19.77;12.30;;;;;;;7.58;53.83;101869.31;1772188;80;21030;-77
2021/01/03 11:19:26;;;;;;;23.95;14.65;;;;;;;7.55;53.80;101867.73;1792078;78;21171;-77
2021/01/03 11:21:55;;;;;;;16.30;12.18;;;;;;;7.61;53.85;101865.97;1797943;78;21620;-78
2021/01/03 11:24:23;;;;;;;19.90;15.43;;;;;;;7.72;53.58;101857.70;1784394;80;21097;-79
2021/01/03 11:26:52;;;;;;;16.62;12.70;;;;;;;7.73;53.42;101859.44;1806707;79;21203;-77
2021/01/03 11:29:23;;;;;;;18.07;12.73;;;;;;;7.75;53.33;101854.84;1815086;79;21168;-77
2021/01/03 11:31:55;;;;;;;17.40;11.97;;;;;;;7.77;53.21;101850.27;1810973;79;21442;-78
2021/01/03 11:34:26;;;;;;;15.45;10.30;;;;;;;7.81;53.11;101846.41;1800760;79;21596;-79
2021/01/03 11:36:58;;;;;;;15.25;9.85;;;;;;;7.82;53.09;101849.47;1785261;77;21520;-78
2021/01/03 11:39:27;;;;;;;17.10;10.25;;;;;;;7.84;52.96;101843.05;1782938;80;22658;-78
2021/01/03 11:41:57;;;;;;;17.02;11.90;;;;;;;7.81;52.84;101843.28;1783787;77;21151;-79
2021/01/03 11:44:25;;;;;;;15.20;11.97;;;;;;;7.77;52.94;101848.45;1807221;79;21417;-78
2021/01/03 11:47:09;;;;;;;15.13;9.08;;;;;;;7.78;52.93;101838.64;1814272;79;21179;-78
2021/01/03 11:49:36;;;;;;;15.38;10.13;;;;;;;7.82;52.84;101848.13;1786448;79;21158;-78
2021/01/03 11:52:07;;;;;;;12.98;8.18;;;;;;;7.70;52.81;101840.48;1762398;81;22633;-77
2021/01/03 11:54:35;;;;;;;13.22;7.42;;;;;;;7.62;52.75;101846.82;1770651;79;21200;-78
2021/01/03 11:57:03;;;;;;;14.80;9.88;;;;;;;7.48;52.89;101846.43;1790093;77;21196;-78
2021/01/03 11:59:32;;;;;;;22.65;13.20;;;;;;;7.36;53.06;101845.47;1796925;77;21180;-79